sensor_id;sensor_type;location;lat;lon;timestamp;P1;durP1;ratioP1;P2;durP2;ratioP2
6280;SDS011;3173;48.204;11.612;2024-01-30T00:02:11;15.00;;;8.87;;
6280;SDS011;3173;48.204;11.612;2024-01-30T00:04:37;25.93;;;10.77;;
6280;SDS011;3173;48.204;11.612;2024-01-30T00:07:03;14.50;;;9.33;;
6280;SDS011;3173;48.204;11.612;2024-01-30T00:09:29;15.90;;;8.70;;
6280;SDS011;3173;48.204;11.612;2024-01-30T00:11:55;17.30;;;9.50;;
6280;SDS011;3173;48.204;11.612;2024-01-30T00:14:22;24.47;;;10.67;;
6280;SDS011;3173;48.204;11.612;2024-01-30T00:16:48;16.63;;;8.40;;
6280;SDS011;3173;48.204;11.612;2024-01-30T00:19:14;17.30;;;9.50;;
6280;SDS011;3173;48.204;11.612;2024-01-30T00:21:40;20.30;;;10.00;;
6280;SDS011;3173;48.204;11.612;2024-01-30T00:24:06;19.33;;;10.30;;
6280;SDS011;3173;48.204;11.612;2024-01-30T00:26:32;16.43;;;9.77;;
6280;SDS011;3173;48.204;11.612;2024-01-30T00:28:58;22.03;;;9.73;;
6280;SDS011;3173;48.204;11.612;2024-01-30T00:31:25;16.97;;;9.50;;
6280;SDS011;3173;48.204;11.612;2024-01-30T00:33:51;15.70;;;9.60;;
6280;SDS011;3173;48.204;11.612;2024-01-30T00:36:17;19.67;;;10.67;;
6280;SDS011;3173;48.204;11.612;2024-01-30T00:38:43;18.80;;;9.57;;
6280;SDS011;3173;48.204;11.612;2024-01-30T00:41:09;18.70;;;9.37;;
6280;SDS011;3173;48.204;11.612;2024-01-30T00:43:36;18.30;;;10.13;;
6280;SDS011;3173;48.204;11.612;2024-01-30T00:46:02;22.80;;;10.40;;
6280;SDS011;3173;48.204;11.612;2024-01-30T00:48:28;18.37;;;10.30;;
6280;SDS011;3173;48.204;11.612;2024-01-30T00:50:55;17.57;;;9.73;;
6280;SDS011;3173;48.204;11.612;2024-01-30T00:53:21;17.27;;;9.17;;
6280;SDS011;3173;48.204;11.612;2024-01-30T00:55:47;16.43;;;9.60;;
6280;SDS011;3173;48.204;11.612;2024-01-30T00:58:13;18.03;;;9.67;;
6280;SDS011;3173;48.204;11.612;2024-01-30T01:00:39;15.93;;;8.87;;
6280;SDS011;3173;48.204;11.612;2024-01-30T01:03:05;17.30;;;8.77;;
6280;SDS011;3173;48.204;11.612;2024-01-30T01:05:32;15.80;;;9.50;;
6280;SDS011;3173;48.204;11.612;2024-01-30T01:07:58;16.23;;;9.97;;
6280;SDS011;3173;48.204;11.612;2024-01-30T01:10:24;19.03;;;10.67;;
6280;SDS011;3173;48.204;11.612;2024-01-30T01:12:50;18.40;;;9.63;;
6280;SDS011;3173;48.204;11.612;2024-01-30T01:15:16;19.90;;;9.97;;
6280;SDS011;3173;48.204;11.612;2024-01-30T01:17:42;16.53;;;10.07;;
6280;SDS011;3173;48.204;11.612;2024-01-30T01:20:08;18.17;;;8.77;;
6280;SDS011;3173;48.204;11.612;2024-01-30T01:22:35;18.73;;;10.27;;
6280;SDS011;3173;48.204;11.612;2024-01-30T01:25:03;16.57;;;8.77;;
6280;SDS011;3173;48.204;11.612;2024-01-30T01:27:33;14.50;;;8.43;;
6280;SDS011;3173;48.204;11.612;2024-01-30T01:29:59;17.40;;;8.70;;
6280;SDS011;3173;48.204;11.612;2024-01-30T01:32:26;19.80;;;9.70;;
6280;SDS011;3173;48.204;11.612;2024-01-30T01:34:52;23.20;;;9.97;;
6280;SDS011;3173;48.204;11.612;2024-01-30T01:37:19;13.90;;;8.37;;
6280;SDS011;3173;48.204;11.612;2024-01-30T01:39:47;16.42;;;9.07;;
6280;SDS011;3173;48.204;11.612;2024-01-30T01:42:13;18.23;;;9.40;;
6280;SDS011;3173;48.204;11.612;2024-01-30T01:44:39;22.10;;;9.53;;
6280;SDS011;3173;48.204;11.612;2024-01-30T01:47:05;17.53;;;9.30;;
6280;SDS011;3173;48.204;11.612;2024-01-30T01:49:32;15.03;;;9.50;;
6280;SDS011;3173;48.204;11.612;2024-01-30T01:51:58;16.43;;;9.20;;
6280;SDS011;3173;48.204;11.612;2024-01-30T01:54:25;16.27;;;8.90;;
6280;SDS011;3173;48.204;11.612;2024-01-30T01:56:51;12.73;;;8.43;;
6280;SDS011;3173;48.204;11.612;2024-01-30T01:59:18;19.07;;;9.77;;
6280;SDS011;3173;48.204;11.612;2024-01-30T02:01:45;19.77;;;9.00;;
6280;SDS011;3173;48.204;11.612;2024-01-30T02:04:14;16.70;;;9.15;;
6280;SDS011;3173;48.204;11.612;2024-01-30T02:06:40;18.60;;;8.40;;
6280;SDS011;3173;48.204;11.612;2024-01-30T02:09:06;18.45;;;8.70;;
6280;SDS011;3173;48.204;11.612;2024-01-30T02:11:34;16.17;;;9.18;;
6280;SDS011;3173;48.204;11.612;2024-01-30T02:14:04;16.17;;;8.80;;
6280;SDS011;3173;48.204;11.612;2024-01-30T02:16:30;21.08;;;8.68;;
6280;SDS011;3173;48.204;11.612;2024-01-30T02:18:56;16.25;;;9.30;;
6280;SDS011;3173;48.204;11.612;2024-01-30T02:21:23;15.10;;;8.63;;
6280;SDS011;3173;48.204;11.612;2024-01-30T02:23:49;16.70;;;9.00;;
6280;SDS011;3173;48.204;11.612;2024-01-30T02:26:16;16.70;;;9.05;;
6280;SDS011;3173;48.204;11.612;2024-01-30T02:28:42;16.33;;;8.63;;
6280;SDS011;3173;48.204;11.612;2024-01-30T02:31:08;19.15;;;9.00;;
6280;SDS011;3173;48.204;11.612;2024-01-30T02:33:34;25.10;;;9.40;;
6280;SDS011;3173;48.204;11.612;2024-01-30T02:36:00;19.05;;;9.02;;
6280;SDS011;3173;48.204;11.612;2024-01-30T02:38:26;15.40;;;8.20;;
6280;SDS011;3173;48.204;11.612;2024-01-30T02:40:54;17.50;;;9.32;;
6280;SDS011;3173;48.204;11.612;2024-01-30T02:43:21;17.63;;;8.65;;
6280;SDS011;3173;48.204;11.612;2024-01-30T02:45:47;15.75;;;8.68;;
6280;SDS011;3173;48.204;11.612;2024-01-30T02:48:13;14.70;;;8.57;;
6280;SDS011;3173;48.204;11.612;2024-01-30T02:50:39;19.27;;;9.37;;
6280;SDS011;3173;48.204;11.612;2024-01-30T02:53:05;16.80;;;9.43;;
6280;SDS011;3173;48.204;11.612;2024-01-30T02:55:32;14.90;;;8.20;;
6280;SDS011;3173;48.204;11.612;2024-01-30T02:57:59;14.25;;;8.90;;
6280;SDS011;3173;48.204;11.612;2024-01-30T03:00:25;17.00;;;7.82;;
6280;SDS011;3173;48.204;11.612;2024-01-30T03:02:51;14.00;;;8.52;;
6280;SDS011;3173;48.204;11.612;2024-01-30T03:05:17;13.50;;;7.97;;
6280;SDS011;3173;48.204;11.612;2024-01-30T03:07:43;13.98;;;9.00;;
6280;SDS011;3173;48.204;11.612;2024-01-30T03:10:09;16.20;;;9.37;;
6280;SDS011;3173;48.204;11.612;2024-01-30T03:12:35;15.27;;;8.48;;
6280;SDS011;3173;48.204;11.612;2024-01-30T03:15:01;14.60;;;8.55;;
6280;SDS011;3173;48.204;11.612;2024-01-30T03:17:28;17.00;;;9.02;;
6280;SDS011;3173;48.204;11.612;2024-01-30T03:19:54;12.00;;;7.40;;
6280;SDS011;3173;48.204;11.612;2024-01-30T03:22:20;19.43;;;8.60;;
6280;SDS011;3173;48.204;11.612;2024-01-30T03:24:46;13.75;;;7.22;;
6280;SDS011;3173;48.204;11.612;2024-01-30T03:27:12;16.50;;;8.18;;
6280;SDS011;3173;48.204;11.612;2024-01-30T03:29:38;16.63;;;8.90;;
6280;SDS011;3173;48.204;11.612;2024-01-30T03:32:04;16.67;;;8.68;;
6280;SDS011;3173;48.204;11.612;2024-01-30T03:34:30;14.27;;;8.60;;
6280;SDS011;3173;48.204;11.612;2024-01-30T03:36:57;15.38;;;8.55;;
6280;SDS011;3173;48.204;11.612;2024-01-30T03:39:23;14.82;;;7.82;;
6280;SDS011;3173;48.204;11.612;2024-01-30T03:41:49;18.50;;;8.43;;
6280;SDS011;3173;48.204;11.612;2024-01-30T03:44:15;15.63;;;7.78;;
6280;SDS011;3173;48.204;11.612;2024-01-30T03:46:41;15.32;;;8.15;;
6280;SDS011;3173;48.204;11.612;2024-01-30T03:49:07;11.75;;;7.53;;
6280;SDS011;3173;48.204;11.612;2024-01-30T03:51:33;19.53;;;8.37;;
6280;SDS011;3173;48.204;11.612;2024-01-30T03:54:00;15.65;;;9.35;;
6280;SDS011;3173;48.204;11.612;2024-01-30T03:56:26;13.93;;;8.35;;
6280;SDS011;3173;48.204;11.612;2024-01-30T03:58:52;13.25;;;7.93;;
6280;SDS011;3173;48.204;11.612;2024-01-30T04:01:19;13.55;;;7.20;;
6280;SDS011;3173;48.204;11.612;2024-01-30T04:03:45;18.08;;;8.13;;
6280;SDS011;3173;48.204;11.612;2024-01-30T04:06:11;17.05;;;8.77;;
6280;SDS011;3173;48.204;11.612;2024-01-30T04:08:37;15.80;;;7.82;;
6280;SDS011;3173;48.204;11.612;2024-01-30T04:11:07;14.63;;;7.03;;
6280;SDS011;3173;48.204;11.612;2024-01-30T04:13:33;11.20;;;7.15;;
6280;SDS011;3173;48.204;11.612;2024-01-30T04:15:59;15.52;;;8.27;;
6280;SDS011;3173;48.204;11.612;2024-01-30T04:18:29;15.80;;;7.38;;
6280;SDS011;3173;48.204;11.612;2024-01-30T04:20:55;13.77;;;8.02;;
6280;SDS011;3173;48.204;11.612;2024-01-30T04:23:21;13.70;;;7.55;;
6280;SDS011;3173;48.204;11.612;2024-01-30T04:25:47;13.25;;;8.05;;
6280;SDS011;3173;48.204;11.612;2024-01-30T04:28:13;15.27;;;8.05;;
6280;SDS011;3173;48.204;11.612;2024-01-30T04:30:39;16.55;;;8.48;;
6280;SDS011;3173;48.204;11.612;2024-01-30T04:33:05;14.90;;;7.40;;
6280;SDS011;3173;48.204;11.612;2024-01-30T04:35:32;14.20;;;7.80;;
6280;SDS011;3173;48.204;11.612;2024-01-30T04:37:58;13.48;;;7.25;;
6280;SDS011;3173;48.204;11.612;2024-01-30T04:40:24;13.57;;;8.57;;
6280;SDS011;3173;48.204;11.612;2024-01-30T04:42:50;21.05;;;7.60;;
6280;SDS011;3173;48.204;11.612;2024-01-30T04:45:16;11.15;;;6.97;;
6280;SDS011;3173;48.204;11.612;2024-01-30T04:47:42;9.95;;;5.75;;
6280;SDS011;3173;48.204;11.612;2024-01-30T04:50:09;14.70;;;7.72;;
6280;SDS011;3173;48.204;11.612;2024-01-30T04:52:35;12.88;;;6.75;;
6280;SDS011;3173;48.204;11.612;2024-01-30T04:55:01;13.65;;;7.28;;
6280;SDS011;3173;48.204;11.612;2024-01-30T04:57:27;13.43;;;7.40;;
6280;SDS011;3173;48.204;11.612;2024-01-30T04:59:54;11.73;;;7.20;;
6280;SDS011;3173;48.204;11.612;2024-01-30T05:02:20;13.85;;;6.68;;
6280;SDS011;3173;48.204;11.612;2024-01-30T05:04:46;12.00;;;7.13;;
6280;SDS011;3173;48.204;11.612;2024-01-30T05:07:12;13.48;;;7.20;;
6280;SDS011;3173;48.204;11.612;2024-01-30T05:09:38;12.52;;;7.20;;
6280;SDS011;3173;48.204;11.612;2024-01-30T05:12:04;12.75;;;7.15;;
6280;SDS011;3173;48.204;11.612;2024-01-30T05:14:30;14.00;;;7.55;;
6280;SDS011;3173;48.204;11.612;2024-01-30T05:16:57;13.57;;;6.90;;
6280;SDS011;3173;48.204;11.612;2024-01-30T05:19:23;16.20;;;6.93;;
6280;SDS011;3173;48.204;11.612;2024-01-30T05:21:49;14.93;;;7.18;;
6280;SDS011;3173;48.204;11.612;2024-01-30T05:24:15;12.73;;;7.20;;
6280;SDS011;3173;48.204;11.612;2024-01-30T05:26:41;11.23;;;7.40;;
6280;SDS011;3173;48.204;11.612;2024-01-30T05:29:07;17.30;;;6.95;;
6280;SDS011;3173;48.204;11.612;2024-01-30T05:31:34;15.52;;;7.35;;
6280;SDS011;3173;48.204;11.612;2024-01-30T05:34:00;12.45;;;6.95;;
6280;SDS011;3173;48.204;11.612;2024-01-30T05:36:26;10.57;;;6.40;;
6280;SDS011;3173;48.204;11.612;2024-01-30T05:38:52;17.50;;;7.40;;
6280;SDS011;3173;48.204;11.612;2024-01-30T05:41:19;15.30;;;7.40;;
6280;SDS011;3173;48.204;11.612;2024-01-30T05:43:46;17.98;;;8.15;;
6280;SDS011;3173;48.204;11.612;2024-01-30T05:46:12;12.13;;;7.50;;
6280;SDS011;3173;48.204;11.612;2024-01-30T05:48:39;13.68;;;7.53;;
6280;SDS011;3173;48.204;11.612;2024-01-30T05:51:06;15.23;;;7.50;;
6280;SDS011;3173;48.204;11.612;2024-01-30T05:53:33;11.88;;;6.80;;
6280;SDS011;3173;48.204;11.612;2024-01-30T05:56:01;15.77;;;7.97;;
6280;SDS011;3173;48.204;11.612;2024-01-30T05:58:28;14.00;;;7.95;;
6280;SDS011;3173;48.204;11.612;2024-01-30T06:00:54;17.02;;;7.82;;
6280;SDS011;3173;48.204;11.612;2024-01-30T06:03:20;15.95;;;7.82;;
6280;SDS011;3173;48.204;11.612;2024-01-30T06:05:46;16.17;;;7.63;;
6280;SDS011;3173;48.204;11.612;2024-01-30T06:08:12;13.23;;;8.20;;
6280;SDS011;3173;48.204;11.612;2024-01-30T06:10:39;17.10;;;6.75;;
6280;SDS011;3173;48.204;11.612;2024-01-30T06:13:05;11.45;;;7.18;;
6280;SDS011;3173;48.204;11.612;2024-01-30T06:15:31;14.23;;;8.02;;
6280;SDS011;3173;48.204;11.612;2024-01-30T06:17:58;12.98;;;7.50;;
6280;SDS011;3173;48.204;11.612;2024-01-30T06:20:24;14.77;;;7.88;;
6280;SDS011;3173;48.204;11.612;2024-01-30T06:22:51;23.23;;;6.70;;
6280;SDS011;3173;48.204;11.612;2024-01-30T06:25:17;16.27;;;8.45;;
6280;SDS011;3173;48.204;11.612;2024-01-30T06:27:43;15.43;;;8.00;;
6280;SDS011;3173;48.204;11.612;2024-01-30T06:30:09;13.05;;;7.60;;
6280;SDS011;3173;48.204;11.612;2024-01-30T06:32:35;20.98;;;8.30;;
6280;SDS011;3173;48.204;11.612;2024-01-30T06:35:02;14.88;;;9.02;;
6280;SDS011;3173;48.204;11.612;2024-01-30T06:37:28;14.93;;;8.00;;
6280;SDS011;3173;48.204;11.612;2024-01-30T06:39:54;12.68;;;7.95;;
6280;SDS011;3173;48.204;11.612;2024-01-30T06:42:20;17.95;;;8.85;;
6280;SDS011;3173;48.204;11.612;2024-01-30T06:44:46;19.70;;;8.20;;
6280;SDS011;3173;48.204;11.612;2024-01-30T06:47:12;17.53;;;8.30;;
6280;SDS011;3173;48.204;11.612;2024-01-30T06:49:38;20.10;;;8.13;;
6280;SDS011;3173;48.204;11.612;2024-01-30T06:52:07;13.70;;;7.05;;
6280;SDS011;3173;48.204;11.612;2024-01-30T06:54:33;16.88;;;7.30;;
6280;SDS011;3173;48.204;11.612;2024-01-30T06:56:59;13.27;;;7.63;;
6280;SDS011;3173;48.204;11.612;2024-01-30T06:59:25;18.20;;;7.55;;
6280;SDS011;3173;48.204;11.612;2024-01-30T07:01:51;13.75;;;8.25;;
6280;SDS011;3173;48.204;11.612;2024-01-30T07:04:18;23.83;;;8.20;;
6280;SDS011;3173;48.204;11.612;2024-01-30T07:06:44;18.58;;;8.07;;
6280;SDS011;3173;48.204;11.612;2024-01-30T07:09:10;16.38;;;7.72;;
6280;SDS011;3173;48.204;11.612;2024-01-30T07:11:36;17.30;;;8.45;;
6280;SDS011;3173;48.204;11.612;2024-01-30T07:14:02;15.13;;;7.85;;
6280;SDS011;3173;48.204;11.612;2024-01-30T07:16:31;27.08;;;8.80;;
6280;SDS011;3173;48.204;11.612;2024-01-30T07:18:57;15.25;;;7.70;;
6280;SDS011;3173;48.204;11.612;2024-01-30T07:21:23;13.52;;;6.82;;
6280;SDS011;3173;48.204;11.612;2024-01-30T07:23:53;14.05;;;7.55;;
6280;SDS011;3173;48.204;11.612;2024-01-30T07:26:20;18.60;;;8.73;;
6280;SDS011;3173;48.204;11.612;2024-01-30T07:28:46;18.60;;;8.37;;
6280;SDS011;3173;48.204;11.612;2024-01-30T07:31:12;22.37;;;7.80;;
6280;SDS011;3173;48.204;11.612;2024-01-30T07:33:38;28.33;;;7.82;;
6280;SDS011;3173;48.204;11.612;2024-01-30T07:36:04;21.45;;;8.85;;
6280;SDS011;3173;48.204;11.612;2024-01-30T07:38:33;15.67;;;7.83;;
6280;SDS011;3173;48.204;11.612;2024-01-30T07:40:59;11.48;;;7.38;;
6280;SDS011;3173;48.204;11.612;2024-01-30T07:43:25;14.80;;;7.45;;
6280;SDS011;3173;48.204;11.612;2024-01-30T07:45:51;25.30;;;7.60;;
6280;SDS011;3173;48.204;11.612;2024-01-30T07:48:17;22.77;;;7.63;;
6280;SDS011;3173;48.204;11.612;2024-01-30T07:50:43;14.80;;;7.20;;
6280;SDS011;3173;48.204;11.612;2024-01-30T07:53:10;15.50;;;6.50;;
6280;SDS011;3173;48.204;11.612;2024-01-30T07:55:36;19.13;;;6.50;;
6280;SDS011;3173;48.204;11.612;2024-01-30T07:58:02;19.37;;;6.83;;
6280;SDS011;3173;48.204;11.612;2024-01-30T08:00:29;14.37;;;7.70;;
6280;SDS011;3173;48.204;11.612;2024-01-30T08:02:56;18.13;;;7.50;;
6280;SDS011;3173;48.204;11.612;2024-01-30T08:05:22;16.33;;;7.37;;
6280;SDS011;3173;48.204;11.612;2024-01-30T08:07:51;33.67;;;9.40;;
6280;SDS011;3173;48.204;11.612;2024-01-30T08:10:17;25.90;;;9.03;;
6280;SDS011;3173;48.204;11.612;2024-01-30T08:12:45;40.57;;;11.33;;
6280;SDS011;3173;48.204;11.612;2024-01-30T08:15:11;33.53;;;10.17;;
6280;SDS011;3173;48.204;11.612;2024-01-30T08:17:38;30.40;;;8.63;;
6280;SDS011;3173;48.204;11.612;2024-01-30T08:20:04;17.43;;;9.40;;
6280;SDS011;3173;48.204;11.612;2024-01-30T08:22:31;12.50;;;7.57;;
6280;SDS011;3173;48.204;11.612;2024-01-30T08:24:57;16.37;;;8.70;;
6280;SDS011;3173;48.204;11.612;2024-01-30T08:27:23;15.50;;;8.97;;
6280;SDS011;3173;48.204;11.612;2024-01-30T08:29:49;17.20;;;9.27;;
6280;SDS011;3173;48.204;11.612;2024-01-30T08:32:15;14.63;;;7.87;;
6280;SDS011;3173;48.204;11.612;2024-01-30T08:34:42;15.00;;;7.80;;
6280;SDS011;3173;48.204;11.612;2024-01-30T08:37:08;10.20;;;6.77;;
6280;SDS011;3173;48.204;11.612;2024-01-30T08:39:34;10.53;;;7.47;;
6280;SDS011;3173;48.204;11.612;2024-01-30T08:42:00;13.53;;;6.37;;
6280;SDS011;3173;48.204;11.612;2024-01-30T08:44:26;12.60;;;6.47;;
6280;SDS011;3173;48.204;11.612;2024-01-30T08:46:52;14.77;;;6.90;;
6280;SDS011;3173;48.204;11.612;2024-01-30T08:49:19;19.40;;;6.67;;
6280;SDS011;3173;48.204;11.612;2024-01-30T08:51:46;10.60;;;6.17;;
6280;SDS011;3173;48.204;11.612;2024-01-30T08:54:12;17.13;;;5.67;;
6280;SDS011;3173;48.204;11.612;2024-01-30T08:56:38;13.00;;;6.10;;
6280;SDS011;3173;48.204;11.612;2024-01-30T08:59:04;10.77;;;5.10;;
6280;SDS011;3173;48.204;11.612;2024-01-30T09:01:30;9.37;;;5.83;;
6280;SDS011;3173;48.204;11.612;2024-01-30T09:03:57;14.80;;;6.20;;
6280;SDS011;3173;48.204;11.612;2024-01-30T09:06:23;9.30;;;5.53;;
6280;SDS011;3173;48.204;11.612;2024-01-30T09:08:51;9.87;;;5.30;;
6280;SDS011;3173;48.204;11.612;2024-01-30T09:11:17;10.03;;;5.30;;
6280;SDS011;3173;48.204;11.612;2024-01-30T09:13:44;12.67;;;5.70;;
6280;SDS011;3173;48.204;11.612;2024-01-30T09:16:10;10.33;;;5.80;;
6280;SDS011;3173;48.204;11.612;2024-01-30T09:18:36;14.83;;;5.90;;
6280;SDS011;3173;48.204;11.612;2024-01-30T09:21:02;13.40;;;5.93;;
6280;SDS011;3173;48.204;11.612;2024-01-30T09:23:28;17.30;;;6.07;;
6280;SDS011;3173;48.204;11.612;2024-01-30T09:25:55;11.80;;;6.30;;
6280;SDS011;3173;48.204;11.612;2024-01-30T09:28:21;12.70;;;6.20;;
6280;SDS011;3173;48.204;11.612;2024-01-30T09:30:47;21.43;;;6.30;;
6280;SDS011;3173;48.204;11.612;2024-01-30T09:33:13;8.70;;;5.10;;
6280;SDS011;3173;48.204;11.612;2024-01-30T09:35:39;12.90;;;5.87;;
6280;SDS011;3173;48.204;11.612;2024-01-30T09:38:05;13.20;;;6.37;;
6280;SDS011;3173;48.204;11.612;2024-01-30T09:40:31;17.70;;;5.97;;
6280;SDS011;3173;48.204;11.612;2024-01-30T09:42:58;22.67;;;6.50;;
6280;SDS011;3173;48.204;11.612;2024-01-30T09:45:27;16.20;;;7.00;;
6280;SDS011;3173;48.204;11.612;2024-01-30T09:47:53;14.57;;;7.03;;
6280;SDS011;3173;48.204;11.612;2024-01-30T09:50:19;17.53;;;6.80;;
6280;SDS011;3173;48.204;11.612;2024-01-30T09:52:46;15.93;;;6.13;;
6280;SDS011;3173;48.204;11.612;2024-01-30T09:55:13;17.37;;;5.87;;
6280;SDS011;3173;48.204;11.612;2024-01-30T09:57:39;14.90;;;6.37;;
6280;SDS011;3173;48.204;11.612;2024-01-30T10:00:07;11.53;;;6.03;;
6280;SDS011;3173;48.204;11.612;2024-01-30T10:02:34;19.07;;;6.50;;
6280;SDS011;3173;48.204;11.612;2024-01-30T10:05:00;17.33;;;5.50;;
6280;SDS011;3173;48.204;11.612;2024-01-30T10:07:26;9.70;;;5.10;;
6280;SDS011;3173;48.204;11.612;2024-01-30T10:09:53;7.00;;;4.43;;
6280;SDS011;3173;48.204;11.612;2024-01-30T10:12:21;9.17;;;5.00;;
6280;SDS011;3173;48.204;11.612;2024-01-30T10:14:47;10.50;;;5.60;;
6280;SDS011;3173;48.204;11.612;2024-01-30T10:17:14;10.53;;;4.43;;
6280;SDS011;3173;48.204;11.612;2024-01-30T10:19:40;12.27;;;5.27;;
6280;SDS011;3173;48.204;11.612;2024-01-30T10:22:07;16.73;;;5.37;;
6280;SDS011;3173;48.204;11.612;2024-01-30T10:24:33;14.47;;;5.90;;
6280;SDS011;3173;48.204;11.612;2024-01-30T10:27:00;8.07;;;5.93;;
6280;SDS011;3173;48.204;11.612;2024-01-30T10:29:26;8.60;;;5.30;;
6280;SDS011;3173;48.204;11.612;2024-01-30T10:34:25;7.47;;;4.70;;
6280;SDS011;3173;48.204;11.612;2024-01-30T10:36:54;15.20;;;4.93;;
6280;SDS011;3173;48.204;11.612;2024-01-30T10:39:23;10.23;;;4.30;;
6280;SDS011;3173;48.204;11.612;2024-01-30T10:41:50;11.30;;;4.60;;
6280;SDS011;3173;48.204;11.612;2024-01-30T10:44:19;8.00;;;4.60;;
6280;SDS011;3173;48.204;11.612;2024-01-30T10:46:45;7.20;;;3.60;;
6280;SDS011;3173;48.204;11.612;2024-01-30T10:49:14;8.07;;;4.17;;
6280;SDS011;3173;48.204;11.612;2024-01-30T10:51:40;7.80;;;4.30;;
6280;SDS011;3173;48.204;11.612;2024-01-30T10:54:07;8.73;;;4.33;;
6280;SDS011;3173;48.204;11.612;2024-01-30T10:56:34;9.00;;;4.30;;
6280;SDS011;3173;48.204;11.612;2024-01-30T10:59:01;12.13;;;4.80;;
6280;SDS011;3173;48.204;11.612;2024-01-30T11:01:27;7.13;;;4.50;;
6280;SDS011;3173;48.204;11.612;2024-01-30T11:03:54;14.60;;;7.20;;
6280;SDS011;3173;48.204;11.612;2024-01-30T11:06:24;6.63;;;4.10;;
6280;SDS011;3173;48.204;11.612;2024-01-30T11:09:01;11.63;;;3.70;;
6280;SDS011;3173;48.204;11.612;2024-01-30T11:11:48;7.70;;;4.00;;
6280;SDS011;3173;48.204;11.612;2024-01-30T11:14:14;12.53;;;4.33;;
6280;SDS011;3173;48.204;11.612;2024-01-30T11:16:40;7.43;;;4.00;;
6280;SDS011;3173;48.204;11.612;2024-01-30T11:19:10;9.33;;;4.60;;
6280;SDS011;3173;48.204;11.612;2024-01-30T11:21:42;10.77;;;4.57;;
6280;SDS011;3173;48.204;11.612;2024-01-30T11:24:08;8.93;;;4.30;;
6280;SDS011;3173;48.204;11.612;2024-01-30T11:26:34;17.63;;;4.40;;
6280;SDS011;3173;48.204;11.612;2024-01-30T11:29:07;8.70;;;4.50;;
6280;SDS011;3173;48.204;11.612;2024-01-30T11:31:34;7.73;;;3.57;;
6280;SDS011;3173;48.204;11.612;2024-01-30T11:34:00;11.20;;;4.70;;
6280;SDS011;3173;48.204;11.612;2024-01-30T11:36:27;11.30;;;4.20;;
6280;SDS011;3173;48.204;11.612;2024-01-30T11:38:54;10.47;;;4.60;;
6280;SDS011;3173;48.204;11.612;2024-01-30T11:41:20;8.90;;;3.30;;
6280;SDS011;3173;48.204;11.612;2024-01-30T11:43:52;4.97;;;2.77;;
6280;SDS011;3173;48.204;11.612;2024-01-30T11:46:19;7.20;;;2.40;;
6280;SDS011;3173;48.204;11.612;2024-01-30T11:48:45;6.77;;;2.37;;
6280;SDS011;3173;48.204;11.612;2024-01-30T11:51:14;5.47;;;2.47;;
6280;SDS011;3173;48.204;11.612;2024-01-30T11:53:43;4.90;;;2.60;;
6280;SDS011;3173;48.204;11.612;2024-01-30T11:56:09;8.50;;;2.40;;
6280;SDS011;3173;48.204;11.612;2024-01-30T11:58:38;5.60;;;2.60;;
6280;SDS011;3173;48.204;11.612;2024-01-30T12:01:08;4.83;;;1.80;;
6280;SDS011;3173;48.204;11.612;2024-01-30T12:03:34;5.07;;;2.60;;
6280;SDS011;3173;48.204;11.612;2024-01-30T12:06:00;6.20;;;4.57;;
6280;SDS011;3173;48.204;11.612;2024-01-30T12:08:28;7.33;;;2.10;;
6280;SDS011;3173;48.204;11.612;2024-01-30T12:10:55;8.60;;;2.20;;
6280;SDS011;3173;48.204;11.612;2024-01-30T12:13:23;3.63;;;2.27;;
6280;SDS011;3173;48.204;11.612;2024-01-30T12:15:49;4.03;;;2.30;;
6280;SDS011;3173;48.204;11.612;2024-01-30T12:18:18;15.20;;;2.63;;
6280;SDS011;3173;48.204;11.612;2024-01-30T12:20:45;8.17;;;3.00;;
6280;SDS011;3173;48.204;11.612;2024-01-30T12:23:14;7.33;;;2.40;;
6280;SDS011;3173;48.204;11.612;2024-01-30T12:25:40;6.60;;;2.70;;
6280;SDS011;3173;48.204;11.612;2024-01-30T12:28:07;12.33;;;3.57;;
6280;SDS011;3173;48.204;11.612;2024-01-30T12:30:34;4.53;;;2.20;;
6280;SDS011;3173;48.204;11.612;2024-01-30T12:33:01;5.20;;;2.57;;
6280;SDS011;3173;48.204;11.612;2024-01-30T12:35:29;7.47;;;2.43;;
6280;SDS011;3173;48.204;11.612;2024-01-30T12:37:55;5.60;;;2.23;;
6280;SDS011;3173;48.204;11.612;2024-01-30T12:40:21;6.87;;;1.80;;
6280;SDS011;3173;48.204;11.612;2024-01-30T12:42:49;4.83;;;2.50;;
6280;SDS011;3173;48.204;11.612;2024-01-30T12:45:15;8.93;;;2.47;;
6280;SDS011;3173;48.204;11.612;2024-01-30T12:47:45;17.57;;;2.43;;
6280;SDS011;3173;48.204;11.612;2024-01-30T12:50:11;7.23;;;2.40;;
6280;SDS011;3173;48.204;11.612;2024-01-30T12:52:40;3.57;;;2.07;;
6280;SDS011;3173;48.204;11.612;2024-01-30T12:55:06;5.20;;;2.20;;
6280;SDS011;3173;48.204;11.612;2024-01-30T12:57:32;7.13;;;2.20;;
6280;SDS011;3173;48.204;11.612;2024-01-30T12:59:58;5.03;;;2.53;;
6280;SDS011;3173;48.204;11.612;2024-01-30T13:02:24;5.87;;;2.53;;
6280;SDS011;3173;48.204;11.612;2024-01-30T13:04:53;6.80;;;2.37;;
6280;SDS011;3173;48.204;11.612;2024-01-30T13:07:19;7.20;;;2.50;;
6280;SDS011;3173;48.204;11.612;2024-01-30T13:09:46;3.80;;;1.67;;
6280;SDS011;3173;48.204;11.612;2024-01-30T13:12:12;16.17;;;2.03;;
6280;SDS011;3173;48.204;11.612;2024-01-30T13:14:38;5.70;;;2.30;;
6280;SDS011;3173;48.204;11.612;2024-01-30T13:17:04;5.03;;;1.70;;
6280;SDS011;3173;48.204;11.612;2024-01-30T13:19:31;5.43;;;1.90;;
6280;SDS011;3173;48.204;11.612;2024-01-30T13:21:57;6.10;;;2.10;;
6280;SDS011;3173;48.204;11.612;2024-01-30T13:24:23;9.50;;;2.23;;
6280;SDS011;3173;48.204;11.612;2024-01-30T13:26:49;3.87;;;2.27;;
6280;SDS011;3173;48.204;11.612;2024-01-30T13:29:15;3.90;;;1.90;;
6280;SDS011;3173;48.204;11.612;2024-01-30T13:31:41;4.30;;;2.03;;
6280;SDS011;3173;48.204;11.612;2024-01-30T13:34:09;5.40;;;1.90;;
6280;SDS011;3173;48.204;11.612;2024-01-30T13:36:35;5.70;;;1.90;;
6280;SDS011;3173;48.204;11.612;2024-01-30T13:39:01;5.40;;;1.93;;
6280;SDS011;3173;48.204;11.612;2024-01-30T13:41:27;3.60;;;1.60;;
6280;SDS011;3173;48.204;11.612;2024-01-30T13:43:55;4.33;;;2.10;;
6280;SDS011;3173;48.204;11.612;2024-01-30T13:46:21;4.77;;;1.80;;
6280;SDS011;3173;48.204;11.612;2024-01-30T13:48:47;6.97;;;2.10;;
6280;SDS011;3173;48.204;11.612;2024-01-30T13:51:13;7.90;;;2.57;;
6280;SDS011;3173;48.204;11.612;2024-01-30T13:53:41;12.53;;;2.37;;
6280;SDS011;3173;48.204;11.612;2024-01-30T13:56:07;3.17;;;1.83;;
6280;SDS011;3173;48.204;11.612;2024-01-30T13:58:34;8.23;;;2.23;;
6280;SDS011;3173;48.204;11.612;2024-01-30T14:01:01;4.60;;;2.20;;
6280;SDS011;3173;48.204;11.612;2024-01-30T14:03:27;7.67;;;2.53;;
6280;SDS011;3173;48.204;11.612;2024-01-30T14:05:54;4.63;;;2.47;;
6280;SDS011;3173;48.204;11.612;2024-01-30T14:08:22;14.37;;;3.20;;
6280;SDS011;3173;48.204;11.612;2024-01-30T14:10:53;6.63;;;3.80;;
6280;SDS011;3173;48.204;11.612;2024-01-30T14:13:20;10.87;;;4.00;;
6280;SDS011;3173;48.204;11.612;2024-01-30T14:15:48;10.63;;;4.27;;
6280;SDS011;3173;48.204;11.612;2024-01-30T14:18:14;8.70;;;4.20;;
6280;SDS011;3173;48.204;11.612;2024-01-30T14:20:41;7.10;;;4.50;;
6280;SDS011;3173;48.204;11.612;2024-01-30T14:23:07;9.53;;;4.00;;
6280;SDS011;3173;48.204;11.612;2024-01-30T14:25:33;14.30;;;5.10;;
6280;SDS011;3173;48.204;11.612;2024-01-30T14:27:59;14.30;;;3.43;;
6280;SDS011;3173;48.204;11.612;2024-01-30T14:30:26;7.63;;;3.33;;
6280;SDS011;3173;48.204;11.612;2024-01-30T14:32:52;7.17;;;3.33;;
6280;SDS011;3173;48.204;11.612;2024-01-30T14:35:18;10.20;;;3.20;;
6280;SDS011;3173;48.204;11.612;2024-01-30T14:37:44;8.70;;;3.70;;
6280;SDS011;3173;48.204;11.612;2024-01-30T14:40:10;5.37;;;3.10;;
6280;SDS011;3173;48.204;11.612;2024-01-30T14:42:37;10.47;;;3.30;;
6280;SDS011;3173;48.204;11.612;2024-01-30T14:45:03;14.10;;;3.90;;
6280;SDS011;3173;48.204;11.612;2024-01-30T14:47:29;12.13;;;4.30;;
6280;SDS011;3173;48.204;11.612;2024-01-30T14:49:56;9.30;;;3.90;;